CDT,Max TemperatureF,Mean TemperatureF,Min TemperatureF,Max Dew PointF,MeanDew PointF,Min DewpointF,Max Humidity, Mean Humidity, Min Humidity, Max Sea Level PressureIn, Mean Sea Level PressureIn, Min Sea Level PressureIn, Max VisibilityMiles, Mean VisibilityMiles, Min VisibilityMiles, Max Wind SpeedMPH, Mean Wind SpeedMPH, Max Gust SpeedMPH,PrecipitationIn, CloudCover, Events, WindDirDegrees
2013-4-1,32,26,21,18,13,10,68,53,41,30.24,30.18,30.03,10,10,10,16,11,23,0.00,0,,316
2013-4-2,35,28,21,19,14,9,74,57,35,30.37,30.30,30.24,10,10,10,15,7,21,0.00,0,,311
2013-4-3,44,30,15,21,16,12,86,57,29,30.46,30.34,30.17,10,10,10,10,3,17,0.00,0,,189
2013-4-4,51,42,32,32,24,18,75,52,35,30.16,30.08,30.03,10,10,10,17,8,22,0.00,1,Rain,279
2013-4-5,46,36,26,32,23,14,93,66,29,30.25,30.16,29.99,10,10,4,12,3,16,0.04,2,Rain,122
2013-4-6,53,43,33,45,32,21,93,68,44,29.99,29.70,29.49,10,10,4,18,11,24,0.08,5,Rain,152
2013-4-7,48,40,33,34,31,30,87,71,54,29.97,29.86,29.72,10,10,3,15,8,22,0.00,6,,335
2013-4-8,51,44,37,39,35,32,93,78,62,30.02,29.81,29.71,10,8,4,9,4,,0.07,7,Rain,70
2013-4-9,39,36,33,36,33,32,93,86,81,30.09,30.00,29.93,10,6,1,12,6,28,0.98,8,Rain-Thunderstorm,61
2013-4-10,35,32,30,32,30,27,100,89,70,30.14,30.02,29.85,10,8,2,21,9,30,0.34,8,Rain-Snow-Thunderstorm,82
2013-4-11,35,34,32,32,30,25,100,89,65,29.87,29.72,29.64,10,8,1,20,11,28,0.19,8,Rain-Snow,94
2013-4-12,33,32,30,30,28,27,93,86,75,29.81,29.70,29.61,10,8,2,12,5,18,0.01,8,Snow,318
2013-4-13,33,30,28,30,25,21,93,76,60,29.99,29.89,29.81,10,10,4,14,7,20,0.00,7,Snow,285
2013-4-14,33,32,30,34,30,27,100,91,80,29.98,29.76,29.55,10,6,2,17,7,24,1.31,8,Rain-Snow,123
2013-4-15,42,36,30,34,29,23,100,73,52,29.99,29.78,29.61,10,8,0,17,6,30,0.00,5,Fog,260
2013-4-16,46,39,32,28,26,23,81,65,40,30.33,30.18,29.99,10,10,10,14,7,17,0.00,3,,325
2013-4-17,37,34,30,34,31,27,93,85,70,30.32,30.14,29.83,10,9,3,16,4,21,0.40,7,Rain,88
2013-4-18,39,36,33,36,34,32,100,91,81,29.85,29.57,29.39,10,6,1,13,6,18,0.25,8,Rain-Snow,354
2013-4-19,37,34,30,32,27,21,93,76,52,29.96,29.62,29.38,10,9,3,24,15,36,0.00,7,Snow,314
2013-4-20,44,36,28,27,17,5,86,50,21,30.32,30.23,30.03,10,10,7,8,2,,0.00,0,,358
2013-4-21,55,44,33,46,33,21,93,72,47,30.37,30.25,30.09,10,9,0,17,6,23,0.34,6,Rain-Snow,148
2013-4-22,48,42,35,45,39,34,93,92,87,30.18,30.10,29.98,10,7,1,12,5,17,0.18,8,Rain,321
2013-4-23,35,34,32,34,31,25,93,89,75,30.10,30.06,30.00,10,10,4,17,11,23,0.03,7,Rain,324
2013-4-24,53,42,30,34,26,23,80,56,33,30.07,30.02,29.90,10,10,7,15,6,23,0.02,3,Rain,264
2013-4-25,51,43,35,30,27,21,81,51,30,30.25,30.16,30.00,10,10,10,14,8,20,0.00,5,Rain,265
2013-4-26,73,55,37,45,36,28,70,45,27,30.17,30.09,30.04,10,10,10,17,8,25,0.00,3,Rain,203
2013-4-27,71,60,50,46,44,41,82,56,35,30.16,30.09,29.98,10,10,10,14,5,20,0.00,1,,199
2013-4-28,73,60,48,45,42,39,76,48,29,29.98,29.84,29.72,10,10,10,12,5,21,0.00,0,Thunderstorm,185
2013-4-29,73,63,53,54,51,45,94,65,44,29.80,29.73,29.62,10,10,5,13,3,21,0.01,3,Rain-Thunderstorm,134
2013-4-30,80,66,51,57,50,41,88,56,28,29.97,29.66,29.53,10,9,2,18,8,29,0.60,2,Rain-Thunderstorm,247